Time;durP1;ratioP1;P1;durP2;ratioP2;P2;SDS_P1;SDS_P2;PMS_P1;PMS_P2;Temp;Humidity;BMP_temperature;BMP_pressure;BME280_temperature;BME280_humidity;BME280_pressure;Samples;Min_cycle;Max_cycle;Signal;HPM_P1;HPM_P2
2022/01/10 00:02:11;;;;;;;27.40;14.80;;;2.30;80.50;;;;;;5034808;28;20052;-91
2022/01/10 00:04:38;;;;;;;25.42;13.93;;;2.30;80.60;;;;;;5035100;28;20414;-91
2022/01/10 00:07:06;;;;;;;25.58;14.57;;;2.30;80.60;;;;;;5034439;28;20069;-92
2022/01/10 00:09:33;;;;;;;25.80;13.93;;;2.30;80.60;;;;;;5033921;28;20045;-91
2022/01/10 00:12:00;;;;;;;23.15;13.43;;;2.20;80.60;;;;;;5034891;28;20059;-92
2022/01/10 00:14:27;;;;;;;23.25;12.70;;;2.20;80.60;;;;;;5034635;28;20041;-91
2022/01/10 00:16:54;;;;;;;24.25;12.82;;;2.20;80.60;;;;;;5034634;28;20427;-92
2022/01/10 00:19:22;;;;;;;21.48;12.82;;;2.20;80.60;;;;;;5034637;28;20056;-91
2022/01/10 00:21:50;;;;;;;29.33;15.32;;;2.20;80.60;;;;;;5033257;28;20050;-91
2022/01/10 00:24:17;;;;;;;22.10;13.07;;;2.10;80.60;;;;;;5034639;28;20068;-91
2022/01/10 00:26:43;;;;;;;22.88;12.85;;;2.20;80.60;;;;;;5033929;28;20045;-90
2022/01/10 00:29:10;;;;;;;23.88;13.43;;;2.20;80.60;;;;;;5034223;28;20581;-90
2022/01/10 00:31:38;;;;;;;24.35;12.88;;;2.20;80.70;;;;;;5034314;28;20051;-91
2022/01/10 00:34:05;;;;;;;23.33;12.60;;;2.10;80.60;;;;;;5034598;28;20067;-90
2022/01/10 00:36:32;;;;;;;19.40;12.30;;;2.10;80.60;;;;;;5033245;28;20046;-92
2022/01/10 00:38:59;;;;;;;21.63;13.25;;;2.10;80.60;;;;;;5034119;28;20059;-90
2022/01/10 00:41:26;;;;;;;25.27;12.35;;;2.10;80.60;;;;;;5033858;28;20056;-90
2022/01/10 00:43:53;;;;;;;21.08;12.25;;;2.10;80.60;;;;;;5034323;28;20038;-90
2022/01/10 00:46:21;;;;;;;22.05;11.55;;;2.00;80.60;;;;;;5033928;28;20045;-91
2022/01/10 00:48:49;;;;;;;21.90;12.27;;;2.00;80.60;;;;;;5033164;28;20128;-90
2022/01/10 00:51:16;;;;;;;22.20;12.27;;;2.00;80.60;;;;;;5033803;28;20053;-91
2022/01/10 00:53:44;;;;;;;23.40;12.43;;;2.00;80.60;;;;;;5033169;28;20055;-91
2022/01/10 00:56:11;;;;;;;21.27;12.73;;;2.00;80.60;;;;;;5033759;28;20048;-91
2022/01/10 00:58:39;;;;;;;25.92;12.77;;;2.00;80.60;;;;;;5033772;28;20430;-90
2022/01/10 01:01:06;;;;;;;22.27;12.68;;;2.00;80.60;;;;;;5033905;28;20143;-91
2022/01/10 01:03:33;;;;;;;22.25;12.25;;;2.00;80.60;;;;;;5032564;28;20046;-93
2022/01/10 01:06:01;;;;;;;22.65;13.88;;;1.90;80.60;;;;;;5033546;28;20048;-91
2022/01/10 01:08:30;;;;;;;24.15;13.40;;;1.90;80.60;;;;;;5033489;28;20066;-90
2022/01/10 01:11:22;;;;;;;21.45;13.85;;;1.90;80.60;;;;;;5033549;28;20425;-91
2022/01/10 01:16:19;;;;;;;24.25;14.88;;;1.90;80.60;;;;;;5033842;28;20056;-90
2022/01/10 01:24:07;;;;;;;27.40;14.07;;;1.80;80.60;;;;;;5035940;28;20041;-92
2022/01/10 01:26:39;;;;;;;25.23;15.23;;;1.80;80.60;;;;;;5032591;28;20502;-92
2022/01/10 01:29:08;;;;;;;27.92;16.02;;;1.80;80.60;;;;;;5038130;28;20050;-91
2022/01/10 01:31:36;;;;;;;25.23;14.93;;;1.70;80.60;;;;;;5040283;28;20049;-90
2022/01/10 01:34:04;;;;;;;28.25;15.68;;;1.80;80.60;;;;;;5039758;28;20461;-91
2022/01/10 01:36:33;;;;;;;27.88;14.45;;;1.70;80.60;;;;;;5039334;28;20053;-90
2022/01/10 01:39:05;;;;;;;25.75;14.70;;;1.70;80.60;;;;;;5040104;28;20048;-92
2022/01/10 01:44:00;;;;;;;26.17;14.52;;;1.70;80.60;;;;;;5039960;28;20045;-90
2022/01/10 01:46:27;;;;;;;25.23;13.35;;;1.70;80.60;;;;;;5040122;28;20575;-92
2022/01/10 01:48:55;;;;;;;25.63;13.90;;;1.70;80.60;;;;;;5038865;28;20057;-91
2022/01/10 01:51:23;;;;;;;23.92;13.98;;;1.60;80.60;;;;;;5039677;28;20041;-92
2022/01/10 01:53:52;;;;;;;21.73;13.02;;;1.70;80.60;;;;;;5040081;28;20049;-92
2022/01/10 01:56:20;;;;;;;24.42;12.93;;;1.60;80.60;;;;;;5041284;28;20045;-91
2022/01/10 01:58:47;;;;;;;23.92;13.57;;;1.60;80.60;;;;;;5039847;28;20049;-91
2022/01/10 02:01:18;;;;;;;25.77;12.93;;;1.60;80.60;;;;;;5023307;28;20387;-91
2022/01/10 02:03:46;;;;;;;19.85;12.55;;;1.60;80.70;;;;;;5039315;28;20053;-91
2022/01/10 02:06:14;;;;;;;25.65;12.20;;;1.60;80.70;;;;;;5041313;28;20045;-91
2022/01/10 02:08:41;;;;;;;26.70;12.95;;;1.60;80.70;;;;;;5039850;28;20521;-91
2022/01/10 02:11:12;;;;;;;20.10;12.23;;;1.60;80.60;;;;;;5039777;28;20049;-91
2022/01/10 02:13:39;;;;;;;21.83;12.27;;;1.50;80.70;;;;;;5039871;28;20529;-92
2022/01/10 02:16:09;;;;;;;19.80;11.45;;;1.50;80.60;;;;;;5039815;28;20060;-91
2022/01/10 02:18:38;;;;;;;19.10;11.88;;;1.50;80.60;;;;;;5039453;28;20050;-92
2022/01/10 02:21:05;;;;;;;24.73;12.13;;;1.50;80.60;;;;;;5039721;28;20494;-91
2022/01/10 02:23:33;;;;;;;20.73;12.27;;;1.50;80.60;;;;;;5039814;28;20417;-91
2022/01/10 02:26:01;;;;;;;20.80;11.75;;;1.50;80.60;;;;;;5039970;28;20048;-91
2022/01/10 02:28:28;;;;;;;24.98;11.95;;;1.50;80.60;;;;;;5040080;28;20049;-91
2022/01/10 02:30:57;;;;;;;20.52;12.02;;;1.50;80.60;;;;;;5039337;28;20045;-91
2022/01/10 02:33:26;;;;;;;20.73;10.77;;;1.50;80.60;;;;;;5041393;28;20050;-92
2022/01/10 02:38:26;;;;;;;20.08;11.52;;;1.50;80.60;;;;;;5039773;28;20056;-91
2022/01/10 02:40:55;;;;;;;20.38;11.07;;;1.40;80.60;;;;;;5036313;28;20510;-91
2022/01/10 02:43:22;;;;;;;18.35;11.32;;;1.40;80.60;;;;;;5036554;28;20052;-91
2022/01/10 02:45:49;;;;;;;19.33;10.70;;;1.40;80.60;;;;;;5035166;28;20054;-92
2022/01/10 02:48:16;;;;;;;19.23;11.13;;;1.40;80.60;;;;;;5036559;28;20095;-91
2022/01/10 02:50:43;;;;;;;17.10;10.15;;;1.40;80.60;;;;;;5036209;28;20395;-93
2022/01/10 02:53:10;;;;;;;15.20;10.25;;;1.40;80.60;;;;;;5036479;28;20056;-90
2022/01/10 02:55:37;;;;;;;19.25;10.30;;;1.40;80.60;;;;;;5038934;28;20052;-92
2022/01/10 02:58:04;;;;;;;23.08;10.60;;;1.40;80.60;;;;;;5036042;28;20049;-91
2022/01/10 03:00:31;;;;;;;20.23;10.48;;;1.40;80.60;;;;;;5035233;28;20503;-92
2022/01/10 03:02:59;;;;;;;20.98;10.18;;;1.30;80.60;;;;;;5067803;28;20516;-92
2022/01/10 03:05:26;;;;;;;21.48;11.10;;;1.30;80.60;;;;;;5035903;28;20168;-92
2022/01/10 03:07:56;;;;;;;22.90;11.23;;;1.30;80.60;;;;;;5035768;28;20064;-90
2022/01/10 03:10:23;;;;;;;21.27;10.70;;;1.30;80.60;;;;;;5036142;28;20517;-90
2022/01/10 03:12:50;;;;;;;16.20;10.02;;;1.30;80.60;;;;;;5035247;28;20050;-90
2022/01/10 03:15:18;;;;;;;19.33;10.68;;;1.30;80.60;;;;;;5035833;28;20049;-92
2022/01/10 03:17:45;;;;;;;20.73;10.05;;;1.30;80.60;;;;;;5035551;28;20144;-92
2022/01/10 03:20:12;;;;;;;19.42;9.98;;;1.30;80.60;;;;;;5035601;28;20056;-91
2022/01/10 03:22:40;;;;;;;15.00;9.90;;;1.20;80.60;;;;;;5035647;28;20041;-90
2022/01/10 03:25:07;;;;;;;18.50;10.18;;;1.20;80.70;;;;;;5035604;28;20049;-91
2022/01/10 03:27:34;;;;;;;14.45;9.95;;;1.20;80.60;;;;;;5034762;28;20522;-91
2022/01/10 03:30:02;;;;;;;17.83;10.07;;;1.20;80.70;;;;;;5035263;28;20045;-90
2022/01/10 03:32:29;;;;;;;17.98;10.10;;;1.20;80.70;;;;;;5035329;28;20045;-91
2022/01/10 03:34:57;;;;;;;16.88;9.38;;;1.20;80.60;;;;;;5035247;28;20049;-91
2022/01/10 03:37:25;;;;;;;17.77;9.43;;;1.20;80.60;;;;;;5037024;28;20044;-92
2022/01/10 03:39:52;;;;;;;17.50;10.23;;;1.20;80.60;;;;;;5034398;28;20053;-91
2022/01/10 03:42:19;;;;;;;15.77;8.70;;;1.20;80.60;;;;;;5035131;28;20049;-92
2022/01/10 03:44:47;;;;;;;15.52;9.02;;;1.20;80.60;;;;;;5035083;28;20041;-90
2022/01/10 03:47:16;;;;;;;18.95;10.32;;;1.20;80.60;;;;;;5037385;28;20042;-93
2022/01/10 03:49:44;;;;;;;15.68;9.73;;;1.20;80.60;;;;;;5035328;28;20045;-91
2022/01/10 03:52:11;;;;;;;12.57;9.23;;;1.20;80.60;;;;;;5035000;28;20137;-92
2022/01/10 03:54:38;;;;;;;16.73;9.73;;;1.10;80.60;;;;;;5033111;28;20049;-92
2022/01/10 03:57:06;;;;;;;15.10;9.32;;;1.10;80.60;;;;;;5034851;28;20399;-91
2022/01/10 03:59:33;;;;;;;21.02;10.55;;;1.10;80.60;;;;;;5034778;28;20071;-92
2022/01/10 04:02:00;;;;;;;20.25;10.60;;;1.10;80.60;;;;;;5036693;28;20054;-91
2022/01/10 04:04:27;;;;;;;14.77;9.40;;;1.10;80.60;;;;;;5035013;28;20076;-91
2022/01/10 04:06:55;;;;;;;22.08;10.63;;;1.00;80.60;;;;;;5033932;28;20050;-92
2022/01/10 04:09:23;;;;;;;17.27;10.23;;;1.00;80.60;;;;;;5034154;28;20049;-90
2022/01/10 04:11:50;;;;;;;19.15;10.18;;;1.00;80.60;;;;;;5034384;28;20048;-90
2022/01/10 04:14:19;;;;;;;15.85;10.35;;;1.00;80.60;;;;;;5034420;28;20045;-91
2022/01/10 04:16:46;;;;;;;15.98;10.23;;;1.00;80.70;;;;;;5034474;28;20045;-91
2022/01/10 04:19:13;;;;;;;20.80;11.13;;;1.00;80.70;;;;;;5034565;28;20140;-91
2022/01/10 04:21:40;;;;;;;16.75;9.98;;;1.00;80.70;;;;;;5033812;28;20045;-91
2022/01/10 04:24:07;;;;;;;19.58;10.23;;;1.00;80.70;;;;;;5034192;28;20057;-91
2022/01/10 04:26:34;;;;;;;15.63;10.15;;;1.00;80.70;;;;;;5065774;28;20520;-91
2022/01/10 04:29:01;;;;;;;17.25;10.38;;;1.00;80.80;;;;;;5034011;28;20046;-90
2022/01/10 04:31:28;;;;;;;18.05;10.55;;;1.00;80.70;;;;;;5034146;28;20049;-91
2022/01/10 04:33:55;;;;;;;19.13;9.77;;;1.00;80.80;;;;;;5033535;28;20049;-90
2022/01/10 04:36:22;;;;;;;19.52;10.80;;;1.00;80.80;;;;;;5033554;28;20048;-91
2022/01/10 04:38:49;;;;;;;18.40;11.18;;;1.00;80.80;;;;;;5033861;28;20055;-90
2022/01/10 04:41:16;;;;;;;16.92;10.32;;;1.00;80.80;;;;;;5033659;28;20041;-90
2022/01/10 04:43:43;;;;;;;20.42;11.23;;;1.00;80.80;;;;;;5033886;28;20052;-90
2022/01/10 04:46:10;;;;;;;19.45;10.93;;;1.00;80.80;;;;;;5033897;28;20053;-90
2022/01/10 04:48:37;;;;;;;18.52;11.05;;;1.00;80.80;;;;;;5032938;28;20498;-90
2022/01/10 04:51:12;;;;;;;18.27;10.60;;;1.00;80.80;;;;;;5033565;28;20046;-90
2022/01/10 04:53:40;;;;;;;;;;;1.00;80.80;;;;;;5034113;28;20084;-90
2022/01/10 04:56:07;;;;;;;17.48;10.82;;;1.00;80.80;;;;;;5033337;28;19952;-91
2022/01/10 04:58:34;;;;;;;19.70;11.70;;;0.90;80.80;;;;;;5035927;28;20051;-89
2022/01/10 05:01:03;;;;;;;19.75;11.60;;;0.90;80.80;;;;;;5033612;28;20041;-90
2022/01/10 05:03:32;;;;;;;16.70;11.38;;;0.90;80.80;;;;;;5031871;28;20053;-91
2022/01/10 05:05:59;;;;;;;15.82;11.10;;;0.90;80.80;;;;;;5033486;28;20060;-90
2022/01/10 05:08:26;;;;;;;17.10;10.80;;;0.90;80.80;;;;;;5033342;28;20045;-91
2022/01/10 05:10:54;;;;;;;19.25;11.25;;;0.90;80.90;;;;;;5033026;28;20042;-91
2022/01/10 05:13:22;;;;;;;19.58;10.95;;;0.90;80.90;;;;;;5033275;28;20045;-91
2022/01/10 05:15:51;;;;;;;19.05;11.57;;;0.90;80.90;;;;;;5032407;28;20045;-91
2022/01/10 05:18:20;;;;;;;19.60;10.95;;;0.90;80.90;;;;;;5033531;28;20063;-91
2022/01/10 05:20:48;;;;;;;18.42;11.27;;;0.90;80.90;;;;;;5033228;28;20494;-90
2022/01/10 05:23:16;;;;;;;18.95;10.90;;;0.90;80.90;;;;;;5033110;28;20137;-91
2022/01/10 05:25:43;;;;;;;21.27;11.05;;;0.90;80.90;;;;;;5032956;28;20046;-90
2022/01/10 05:28:12;;;;;;;16.40;11.13;;;0.90;80.90;;;;;;5033203;28;20132;-89
2022/01/10 05:30:40;;;;;;;23.10;12.50;;;0.90;80.90;;;;;;5032467;28;20520;-89
2022/01/10 05:33:08;;;;;;;20.83;12.48;;;0.90;80.90;;;;;;5033052;28;20056;-91
2022/01/10 05:35:39;;;;;;;32.00;14.40;;;0.90;80.90;;;;;;5065011;28;20057;-90
2022/01/10 05:38:06;;;;;;;25.58;13.02;;;0.90;80.90;;;;;;5032873;28;20060;-90
2022/01/10 05:40:33;;;;;;;23.88;13.23;;;0.90;80.90;;;;;;5032860;28;20045;-92
2022/01/10 05:43:00;;;;;;;24.02;12.85;;;0.80;81.00;;;;;;5033148;28;20411;-89
2022/01/10 05:45:28;;;;;;;20.80;11.95;;;0.80;81.00;;;;;;5030373;28;20053;-91
2022/01/10 05:47:55;;;;;;;23.77;12.93;;;0.90;81.10;;;;;;5032923;28;20042;-91
2022/01/10 05:50:33;;;;;;;28.88;13.23;;;0.80;81.10;;;;;;5032950;28;20055;-91
2022/01/10 05:53:01;;;;;;;23.13;13.18;;;0.80;81.10;;;;;;5032733;28;20048;-90
2022/01/10 05:55:28;;;;;;;22.13;12.88;;;0.80;81.10;;;;;;5032634;28;20425;-91
2022/01/10 05:57:56;;;;;;;25.00;12.77;;;0.80;81.20;;;;;;5032390;28;20131;-89
2022/01/10 06:00:23;;;;;;;20.55;13.15;;;0.80;81.20;;;;;;5032363;28;20405;-90
2022/01/10 06:02:51;;;;;;;23.13;12.20;;;0.80;81.20;;;;;;5032741;28;20041;-89
2022/01/10 06:05:19;;;;;;;22.25;11.27;;;0.80;81.30;;;;;;5032982;28;20073;-91
2022/01/10 06:07:47;;;;;;;21.50;11.85;;;0.80;81.30;;;;;;5032654;28;20056;-91
2022/01/10 06:10:14;;;;;;;20.92;11.68;;;0.80;81.30;;;;;;5016986;28;20072;-92
2022/01/10 06:12:41;;;;;;;18.98;11.43;;;0.80;81.40;;;;;;5032057;28;20050;-92
2022/01/10 06:15:09;;;;;;;18.23;11.70;;;0.80;81.40;;;;;;5034864;28;20561;-91
2022/01/10 06:17:36;;;;;;;23.60;12.15;;;0.80;81.50;;;;;;5036524;28;20486;-92
2022/01/10 06:20:04;;;;;;;19.20;11.43;;;0.80;81.50;;;;;;5038741;28;20052;-91
2022/01/10 06:22:31;;;;;;;18.83;12.00;;;0.80;81.60;;;;;;5036102;28;20041;-91
2022/01/10 06:24:59;;;;;;;16.08;10.82;;;0.80;81.60;;;;;;5036280;28;20055;-90
2022/01/10 06:27:26;;;;;;;15.50;10.77;;;0.80;81.70;;;;;;5033486;28;20056;-91
2022/01/10 06:29:54;;;;;;;17.30;10.60;;;0.80;81.70;;;;;;5036434;28;20041;-90
2022/01/10 06:32:21;;;;;;;14.77;10.80;;;0.80;81.80;;;;;;5036152;28;20045;-91
2022/01/10 06:34:48;;;;;;;15.50;10.75;;;0.80;81.80;;;;;;5036352;28;20041;-92
2022/01/10 06:37:15;;;;;;;14.10;10.10;;;0.80;81.80;;;;;;5020366;28;20041;-91
2022/01/10 06:39:42;;;;;;;13.88;10.20;;;0.80;81.90;;;;;;5031316;28;20057;-91
2022/01/10 06:42:10;;;;;;;14.82;10.35;;;0.80;81.90;;;;;;5036276;28;20527;-91
2022/01/10 06:44:38;;;;;;;25.13;11.10;;;0.80;81.90;;;;;;5036172;28;20045;-91
2022/01/10 06:47:05;;;;;;;19.60;10.73;;;0.80;82.00;;;;;;5036013;28;20045;-91
2022/01/10 06:49:32;;;;;;;14.80;11.07;;;0.80;82.10;;;;;;5037614;28;20049;-91
2022/01/10 06:51:59;;;;;;;19.55;10.82;;;0.80;82.10;;;;;;5035733;28;20049;-91
2022/01/10 06:54:27;;;;;;;15.20;9.95;;;0.80;82.10;;;;;;5033291;28;20470;-91
2022/01/10 06:56:58;;;;;;;19.42;11.18;;;0.80;82.20;;;;;;5035757;28;20041;-91
2022/01/10 06:59:26;;;;;;;16.42;11.07;;;0.80;82.30;;;;;;5035853;28;20505;-90
2022/01/10 07:01:58;;;;;;;13.90;10.63;;;0.80;82.30;;;;;;5035811;28;20046;-91
2022/01/10 07:04:26;;;;;;;15.32;10.75;;;0.80;82.40;;;;;;5037288;28;20049;-90
2022/01/10 07:06:54;;;;;;;26.45;10.85;;;0.80;82.40;;;;;;5034416;28;20053;-92
2022/01/10 07:09:21;;;;;;;23.15;11.20;;;0.80;82.50;;;;;;5035393;28;20049;-91
2022/01/10 07:11:48;;;;;;;15.57;11.68;;;0.80;82.50;;;;;;5067391;28;20414;-92
2022/01/10 07:14:17;;;;;;;20.60;10.80;;;0.80;82.60;;;;;;5035407;28;20052;-91
2022/01/10 07:16:44;;;;;;;15.57;11.68;;;0.80;82.70;;;;;;5035749;28;20045;-90
2022/01/10 07:19:11;;;;;;;18.33;10.45;;;0.80;82.80;;;;;;5035552;28;20042;-91
2022/01/10 07:21:39;;;;;;;19.00;10.98;;;0.80;82.80;;;;;;5034464;28;20049;-91
2022/01/10 07:24:07;;;;;;;16.23;12.07;;;0.80;82.90;;;;;;5035463;28;20049;-92
2022/01/10 07:26:34;;;;;;;15.07;10.77;;;0.80;83.00;;;;;;5034621;28;20038;-91
2022/01/10 07:29:04;;;;;;;15.10;10.70;;;0.80;83.00;;;;;;5035369;28;20053;-91
2022/01/10 07:31:31;;;;;;;16.13;11.05;;;0.80;83.10;;;;;;5035434;28;20047;-91
2022/01/10 07:33:58;;;;;;;16.20;11.07;;;0.80;83.10;;;;;;5035054;28;20052;-92
2022/01/10 07:36:25;;;;;;;18.65;11.57;;;0.90;83.20;;;;;;5034058;28;20502;-91
2022/01/10 07:38:52;;;;;;;17.60;11.15;;;0.90;83.30;;;;;;5035015;28;20050;-91
2022/01/10 07:41:19;;;;;;;14.98;10.27;;;0.90;83.30;;;;;;5035039;28;20047;-91
2022/01/10 07:43:46;;;;;;;15.73;10.82;;;0.90;83.40;;;;;;5035128;28;20041;-92
2022/01/10 07:46:14;;;;;;;15.30;10.20;;;0.90;83.40;;;;;;5035418;28;20079;-92
2022/01/10 07:48:43;;;;;;;21.67;10.15;;;0.90;83.50;;;;;;5034327;28;20049;-91
2022/01/10 07:51:12;;;;;;;15.20;9.70;;;1.00;83.50;;;;;;5034649;28;20061;-91
2022/01/10 07:53:40;;;;;;;12.73;8.45;;;0.90;83.60;;;;;;5035281;28;20226;-91
2022/01/10 07:56:09;;;;;;;20.52;9.98;;;1.00;83.70;;;;;;5035117;28;20053;-92
2022/01/10 07:58:36;;;;;;;18.10;9.63;;;1.00;83.70;;;;;;5035041;28;20049;-91
2022/01/10 08:01:04;;;;;;;17.40;9.00;;;1.00;83.80;;;;;;5034854;28;20521;-92
2022/01/10 08:03:32;;;;;;;25.40;8.80;;;1.00;83.80;;;;;;5035630;28;20080;-92
2022/01/10 08:05:59;;;;;;;17.60;9.63;;;1.00;83.90;;;;;;5034787;28;20047;-91
2022/01/10 08:08:26;;;;;;;20.45;9.27;;;1.10;84.00;;;;;;5034723;28;20045;-92
2022/01/10 08:10:53;;;;;;;16.23;9.07;;;1.10;84.00;;;;;;5034580;28;20521;-91
2022/01/10 08:13:20;;;;;;;14.73;8.45;;;1.10;84.10;;;;;;5034726;28;20520;-90
2022/01/10 08:15:47;;;;;;;20.17;9.35;;;1.20;84.10;;;;;;5033670;28;20523;-92
2022/01/10 08:18:17;;;;;;;18.45;9.43;;;1.20;84.10;;;;;;5034166;28;20058;-91
2022/01/10 08:20:44;;;;;;;25.45;9.32;;;1.20;84.20;;;;;;5036128;28;20045;-91
2022/01/10 08:23:13;;;;;;;18.98;9.43;;;1.20;84.20;;;;;;5034339;28;20045;-91
2022/01/10 08:25:41;;;;;;;17.92;9.48;;;1.20;84.20;;;;;;5034357;28;20045;-91
2022/01/10 08:28:08;;;;;;;20.52;9.88;;;1.20;84.30;;;;;;5033302;28;20136;-91
2022/01/10 08:30:36;;;;;;;23.42;11.20;;;1.30;84.30;;;;;;5033732;28;20064;-92
2022/01/10 08:33:04;;;;;;;18.35;10.00;;;1.30;84.30;;;;;;5033893;28;20426;-90
2022/01/10 08:35:32;;;;;;;22.73;10.65;;;1.30;84.40;;;;;;5034186;28;20041;-91
2022/01/10 08:37:59;;;;;;;24.42;11.23;;;1.30;84.40;;;;;;5033176;28;20046;-91
2022/01/10 08:40:29;;;;;;;25.05;10.95;;;1.40;84.50;;;;;;5034148;28;20079;-91
2022/01/10 08:42:56;;;;;;;35.88;11.50;;;1.40;84.50;;;;;;5033629;28;20067;-91
2022/01/10 08:45:23;;;;;;;19.95;10.40;;;1.40;84.60;;;;;;5033416;28;20046;-91
2022/01/10 08:47:50;;;;;;;28.92;11.07;;;1.40;84.60;;;;;;5033543;28;20045;-91
2022/01/10 08:50:17;;;;;;;21.85;10.60;;;1.40;84.70;;;;;;5033867;28;20533;-91
2022/01/10 08:52:44;;;;;;;24.40;11.05;;;1.50;84.70;;;;;;5034012;28;20048;-91
2022/01/10 08:55:12;;;;;;;22.40;10.07;;;1.50;84.70;;;;;;5033948;28;20410;-92
2022/01/10 08:57:39;;;;;;;29.08;10.82;;;1.50;84.80;;;;;;5033250;28;20056;-91
2022/01/10 09:00:07;;;;;;;26.67;11.95;;;1.50;84.80;;;;;;5033876;28;20512;-91
2022/01/10 09:02:35;;;;;;;21.77;11.27;;;1.50;84.80;;;;;;5035018;28;20051;-92
2022/01/10 09:05:03;;;;;;;32.72;11.68;;;1.60;84.90;;;;;;5033925;28;20052;-91
2022/01/10 09:07:30;;;;;;;30.70;11.23;;;1.60;84.90;;;;;;5033726;28;20056;-91
2022/01/10 09:09:57;;;;;;;24.67;10.73;;;1.60;84.90;;;;;;5032355;28;20064;-92
2022/01/10 09:12:25;;;;;;;23.20;11.70;;;1.60;85.00;;;;;;5030263;28;20506;-91
2022/01/10 09:14:54;;;;;;;37.85;11.85;;;1.60;85.00;;;;;;5030024;28;20132;-91
2022/01/10 09:17:25;;;;;;;27.27;11.02;;;1.70;85.00;;;;;;5025053;28;20046;-92
2022/01/10 09:19:52;;;;;;;22.83;10.40;;;1.70;85.00;;;;;;5017114;28;20053;-92
2022/01/10 09:22:19;;;;;;;21.00;10.48;;;1.70;85.10;;;;;;5013167;28;20045;-91
2022/01/10 09:24:46;;;;;;;29.85;11.23;;;1.70;85.10;;;;;;5016372;28;20056;-91
2022/01/10 09:27:14;;;;;;;28.50;9.93;;;1.70;85.10;;;;;;5025927;28;20058;-90
2022/01/10 09:29:42;;;;;;;37.13;10.98;;;1.70;85.10;;;;;;5021703;28;20056;-91
2022/01/10 09:32:10;;;;;;;27.15;11.38;;;1.70;85.10;;;;;;5016124;28;20053;-89
2022/01/10 09:34:37;;;;;;;27.95;11.02;;;1.70;85.10;;;;;;5026705;28;20049;-91
2022/01/10 09:37:04;;;;;;;32.50;11.20;;;1.70;85.20;;;;;;5028318;28;20049;-91
2022/01/10 09:39:32;;;;;;;23.90;10.18;;;1.70;85.20;;;;;;5027372;28;20054;-91
2022/01/10 09:41:59;;;;;;;29.50;11.70;;;1.70;85.20;;;;;;5025928;28;20566;-91
2022/01/10 09:44:26;;;;;;;20.77;10.73;;;1.80;85.20;;;;;;5022816;28;20068;-90
2022/01/10 09:46:53;;;;;;;28.48;11.15;;;1.80;85.30;;;;;;5013846;28;20053;-91
2022/01/10 09:49:21;;;;;;;19.70;10.15;;;1.80;85.30;;;;;;5029050;28;20045;-91
2022/01/10 09:51:49;;;;;;;19.85;11.13;;;1.80;85.30;;;;;;5019401;28;20056;-91
2022/01/10 09:54:16;;;;;;;45.78;11.80;;;1.80;85.30;;;;;;5020734;28;20060;-91
2022/01/10 09:56:47;;;;;;;19.15;11.15;;;1.80;85.40;;;;;;5020252;28;20522;-92
2022/01/10 09:59:14;;;;;;;19.08;11.05;;;1.80;85.40;;;;;;5020307;28;20053;-91
2022/01/10 10:01:43;;;;;;;21.48;11.02;;;1.80;85.40;;;;;;5018667;28;20052;-91
2022/01/10 10:04:12;;;;;;;25.88;11.25;;;1.80;85.40;;;;;;5016437;28;20054;-91
2022/01/10 10:06:39;;;;;;;27.77;11.32;;;1.90;85.50;;;;;;5034917;28;20057;-90
2022/01/10 10:09:08;;;;;;;56.05;12.00;;;1.90;85.50;;;;;;5020307;28;20052;-89
2022/01/10 10:11:51;;;;;;;26.38;11.55;;;1.90;85.50;;;;;;5019800;28;20053;-90
2022/01/10 10:14:21;;;;;;;25.63;11.75;;;1.90;85.60;;;;;;5019657;28;20068;-89
2022/01/10 10:16:51;;;;;;;26.52;11.65;;;1.90;85.60;;;;;;5019456;28;20053;-89
2022/01/10 10:19:21;;;;;;;51.55;12.68;;;1.90;85.60;;;;;;5015755;28;20128;-88
2022/01/10 10:21:49;;;;;;;54.45;13.40;;;1.90;85.60;;;;;;5018569;28;20054;-89
2022/01/10 10:24:16;;;;;;;29.15;11.95;;;1.90;85.60;;;;;;5019752;28;20046;-89
2022/01/10 10:26:44;;;;;;;24.70;12.00;;;1.90;85.70;;;;;;5019817;28;20121;-87
2022/01/10 10:29:14;;;;;;;37.80;11.73;;;1.90;85.70;;;;;;5019343;28;20112;-88
2022/01/10 10:31:44;;;;;;;22.08;11.80;;;1.90;85.70;;;;;;5018608;28;20071;-88
2022/01/10 10:34:27;;;;;;;25.08;11.93;;;2.00;85.80;;;;;;5015641;28;20108;-88
2022/01/10 10:37:06;;;;;;;37.92;12.45;;;2.00;85.80;;;;;;5029893;28;20076;-87
2022/01/10 10:39:37;;;;;;;49.65;12.63;;;2.00;85.80;;;;;;5019371;28;20497;-87
2022/01/10 10:42:09;;;;;;;31.45;11.57;;;2.00;85.80;;;;;;5019379;28;20053;-87
2022/01/10 10:44:36;;;;;;;40.05;11.45;;;2.00;85.80;;;;;;5018396;28;20113;-87
2022/01/10 10:47:04;;;;;;;23.80;11.90;;;2.00;85.80;;;;;;5019099;28;20046;-87
2022/01/10 10:49:36;;;;;;;33.78;13.20;;;2.00;85.90;;;;;;5016642;28;20081;-86
2022/01/10 10:52:06;;;;;;;39.42;13.05;;;2.00;85.90;;;;;;5016284;28;20045;-87
2022/01/10 10:54:34;;;;;;;32.13;12.98;;;2.00;85.90;;;;;;5019020;28;20064;-87
2022/01/10 10:57:05;;;;;;;38.97;13.52;;;2.00;85.90;;;;;;5019114;28;20056;-87
2022/01/10 10:59:37;;;;;;;27.75;13.27;;;2.10;85.90;;;;;;5021493;28;20049;-86
2022/01/10 11:02:04;;;;;;;29.17;13.48;;;2.10;86.00;;;;;;5026334;28;20044;-87
2022/01/10 11:04:34;;;;;;;34.50;15.13;;;2.10;86.00;;;;;;5029932;28;20096;-86
2022/01/10 11:07:03;;;;;;;32.95;14.38;;;2.10;86.00;;;;;;5031631;28;20123;-86
2022/01/10 11:09:30;;;;;;;27.60;13.35;;;2.10;86.00;;;;;;5018871;28;20554;-86
2022/01/10 11:11:57;;;;;;;60.17;14.18;;;2.10;86.10;;;;;;5025160;28;20046;-86
2022/01/10 11:14:25;;;;;;;32.25;14.65;;;2.10;86.10;;;;;;5026100;28;20045;-86
2022/01/10 11:16:54;;;;;;;38.50;14.13;;;2.10;86.10;;;;;;5029342;28;20048;-87
2022/01/10 11:19:26;;;;;;;46.13;14.57;;;2.20;86.10;;;;;;5014881;28;20099;-87
2022/01/10 11:21:54;;;;;;;37.97;16.13;;;2.20;86.20;;;;;;5015011;28;20069;-86
2022/01/10 11:24:49;;;;;;;42.60;15.93;;;2.20;86.20;;;;;;5028472;28;20495;-86
2022/01/10 11:27:33;;;;;;;39.33;15.40;;;2.20;86.20;;;;;;5013234;28;20060;-87
2022/01/10 11:30:20;;;;;;;38.20;16.23;;;2.20;86.20;;;;;;5025087;28;20045;-88
2022/01/10 11:33:03;;;;;;;45.83;17.73;;;2.20;86.20;;;;;;5021899;28;20045;-87
2022/01/10 11:35:58;;;;;;;45.67;18.25;;;2.20;86.30;;;;;;5028270;28;20065;-88
2022/01/10 11:38:49;;;;;;;51.10;17.90;;;2.30;86.20;;;;;;5024202;28;20454;-87
2022/01/10 11:41:19;;;;;;;37.22;17.05;;;2.30;86.30;;;;;;5018054;28;20467;-88
2022/01/10 11:44:09;;;;;;;55.95;17.52;;;2.30;86.30;;;;;;5019219;28;20509;-87
2022/01/10 11:46:36;;;;;;;42.90;16.95;;;2.30;86.30;;;;;;5016119;28;20100;-87
2022/01/10 11:49:12;;;;;;;59.38;17.38;;;2.30;86.30;;;;;;5014900;28;20096;-87
2022/01/10 11:51:49;;;;;;;37.00;15.75;;;2.40;86.40;;;;;;5028634;28;20052;-88
2022/01/10 11:54:30;;;;;;;35.85;16.65;;;2.30;86.40;;;;;;5018612;28;20077;-87
2022/01/10 11:57:00;;;;;;;41.45;15.32;;;2.40;86.40;;;;;;5017732;28;20449;-86
2022/01/10 11:59:31;;;;;;;39.95;16.73;;;2.40;86.40;;;;;;5020083;28;20038;-87
2022/01/10 12:02:25;;;;;;;47.75;16.77;;;2.40;86.40;;;;;;5027669;28;20128;-87
2022/01/10 12:04:58;;;;;;;39.40;16.88;;;2.40;86.40;;;;;;5015622;28;20041;-86
2022/01/10 12:07:27;;;;;;;46.05;17.92;;;2.40;86.50;;;;;;5028715;28;20053;-87
2022/01/10 12:10:00;;;;;;;38.17;16.02;;;2.40;86.50;;;;;;5015441;28;20463;-86
2022/01/10 12:12:30;;;;;;;42.45;17.83;;;2.50;86.50;;;;;;5012679;28;20054;-86
2022/01/10 12:14:57;;;;;;;52.47;17.98;;;2.50;86.50;;;;;;5017122;28;20503;-84
2022/01/10 12:17:31;;;;;;;52.13;17.27;;;2.50;86.50;;;;;;5017462;28;20042;-87
2022/01/10 12:20:01;;;;;;;42.45;17.25;;;2.50;86.60;;;;;;5017881;28;20477;-87
2022/01/10 12:22:28;;;;;;;43.83;19.05;;;2.50;86.60;;;;;;5014542;28;20499;-87
2022/01/10 12:24:55;;;;;;;49.17;17.40;;;2.50;86.60;;;;;;5014909;28;20140;-87
2022/01/10 12:27:22;;;;;;;53.03;17.85;;;2.50;86.60;;;;;;5017716;28;20510;-87
2022/01/10 12:29:50;;;;;;;45.83;17.77;;;2.60;86.60;;;;;;5017232;28;20052;-87
2022/01/10 12:32:17;;;;;;;51.40;18.38;;;2.50;86.60;;;;;;5018249;28;20045;-87
2022/01/10 12:34:46;;;;;;;44.78;19.45;;;2.60;86.60;;;;;;5028388;28;20037;-88
2022/01/10 12:37:13;;;;;;;49.08;19.98;;;2.60;86.70;;;;;;5012634;28;20129;-87
2022/01/10 12:39:41;;;;;;;50.85;20.30;;;2.60;86.70;;;;;;5016863;28;20060;-87
2022/01/10 12:42:08;;;;;;;44.78;18.75;;;2.60;86.70;;;;;;5017193;28;20071;-87
2022/01/10 12:44:35;;;;;;;42.10;18.42;;;2.70;86.70;;;;;;5016652;28;20042;-86
2022/01/10 12:47:03;;;;;;;44.67;18.38;;;2.70;86.70;;;;;;5016894;28;20049;-88
2022/01/10 12:49:31;;;;;;;43.92;19.38;;;2.70;86.70;;;;;;5014538;28;20045;-88
2022/01/10 12:51:59;;;;;;;44.42;18.02;;;2.70;86.70;;;;;;5014302;28;20061;-87
2022/01/10 12:54:31;;;;;;;43.28;18.45;;;2.70;86.70;;;;;;5016499;28;20052;-88
2022/01/10 12:56:59;;;;;;;40.33;17.08;;;2.70;86.70;;;;;;5016893;28;20050;-86
2022/01/10 12:59:30;;;;;;;40.95;17.42;;;2.70;86.70;;;;;;5016809;28;20137;-88